KAVQ

Marana Regional Airport

Marana, Arizona, USA
METAR KAVQ 220215Z AUTO 20012G17KT 10SM CLR 31/M06 A2971 RMK AO2 T03121056
Observed Flight Rules
May-22 @ 02:15 UTC (24 minutes ago) Visual Flight Rules
Wind Visibility Clouds
200° at 12 knots
 Gusting to 17 knots
10 miles
  • Clear skies
Temperatures Readings
Current 31°C / 88°F
Dewpoint -6°C / 21°F
Humidity 9%
Altimeter 29.71" Hg
Pressure 1006 hPa
Elevation 619
METAR KAVQ 220215Z AUTO 20012G17KT 10SM CLR 31/M06 A2971 RMK AO2 T03121056
Observed Flight Rules
May-22 @ 02:15 UTC
(24 minutes ago)
VFR
Wind Visibility
200° at 12 knots
 Gusting to 17 knots
10 miles
Clouds
  • Clear skies
Temperature Dewpoint
31°C / 88°F -6°C / 21°F
Humidity Altimeter Pressure
9% 29.71" Hg 1006 hPa